Login to view Products
 
Friday, December 02, 2022 (14:01 UTC)
Al Ain International Airport
ICAO: OMAL
IATA: AAN
  • METAR OMAL 021400Z 35009KT CAVOK 28/13 Q1014 NOSIG=
  • TAF OMAL 021100Z 0212/0318 34010KT 8000 NSC BECMG 0219/0221 06004KT PROB30 0223/0305 3000 BR BKN008 BECMG 0307/0309 30010KT=
14-- D:\Input Parser\Destinations\Final\11\OMAL_TAF.txt-- 02/12/2022-- 02/12/2022-- 3
Last Updated:
Wind Dir/Speed:
Temperature:
Rel. Humidity:
Pressure:
Visibility: